Time;durP1;ratioP1;P1;durP2;ratioP2;P2;SDS_P1;SDS_P2;PMS_P1;PMS_P2;Temp;Humidity;BMP_temperature;BMP_pressure;BME280_temperature;BME280_humidity;BME280_pressure;Samples;Min_cycle;Max_cycle;Signal;HPM_P1;HPM_P2
2023/09/18 00:01:34;0.00;0.00;0.62;0.00;0.00;0.62;5.87;4.73;;;28.40;38.80;;;;;;2276163;61;20453;-61
2023/09/18 00:04:19;0.00;0.00;0.62;0.00;0.00;0.62;5.23;4.80;;;28.40;38.90;;;;;;2276211;61;20363;-61
2023/09/18 00:07:05;0.00;0.00;0.62;0.00;0.00;0.62;5.67;5.17;;;28.30;38.90;;;;;;2276413;61;20467;-61
2023/09/18 00:09:51;0.00;0.00;0.62;0.00;0.00;0.62;5.30;4.80;;;28.30;39.00;;;;;;2275928;61;20943;-61
2023/09/18 00:12:35;0.00;0.00;0.62;0.00;0.00;0.62;5.43;4.00;;;28.30;39.00;;;;;;2276242;61;20371;-60
2023/09/18 00:15:20;0.00;0.00;0.62;0.00;0.00;0.62;4.37;3.97;;;28.20;39.00;;;;;;2276307;61;20378;-61
2023/09/18 00:18:05;0.00;0.00;0.62;0.00;0.00;0.62;5.00;4.30;;;28.20;39.00;;;;;;2272923;61;20390;-60
2023/09/18 00:20:51;0.00;0.00;0.62;0.00;0.00;0.62;5.43;4.93;;;28.20;39.10;;;;;;2276561;61;20404;-61
2023/09/18 00:23:38;0.00;0.00;0.62;0.00;0.00;0.62;4.80;4.10;;;28.20;39.10;;;;;;2276392;61;20366;-61
2023/09/18 00:26:23;0.00;0.00;0.62;0.00;0.00;0.62;4.30;3.90;;;28.20;39.10;;;;;;2276490;61;20371;-58
2023/09/18 00:29:11;0.00;0.00;0.62;0.00;0.00;0.62;4.80;4.13;;;28.20;39.20;;;;;;2275531;61;20995;-61
2023/09/18 00:31:55;0.00;0.00;0.62;0.00;0.00;0.62;4.33;3.90;;;28.20;39.10;;;;;;2275894;61;20359;-61
2023/09/18 00:34:40;0.00;0.00;0.62;0.00;0.00;0.62;4.77;4.37;;;28.30;39.10;;;;;;2276405;61;20451;-62
2023/09/18 00:37:24;0.00;0.00;0.62;0.00;0.00;0.62;4.60;4.20;;;28.30;39.00;;;;;;2276275;61;20379;-58
2023/09/18 00:40:12;0.00;0.00;0.62;0.00;0.00;0.62;5.53;4.10;;;28.30;38.80;;;;;;2276044;61;21011;-60
2023/09/18 00:42:57;0.00;0.00;0.62;0.00;0.00;0.62;4.30;3.90;;;28.30;38.80;;;;;;2275842;61;20375;-63
2023/09/18 00:45:45;0.00;0.00;0.62;0.00;0.00;0.62;6.30;4.70;;;28.30;38.70;;;;;;2276712;61;20383;-61
2023/09/18 00:48:30;0.00;0.00;0.62;0.00;0.00;0.62;5.43;4.90;;;28.30;38.70;;;;;;2276113;61;20367;-61
2023/09/18 00:51:17;0.00;0.00;0.62;0.00;0.00;0.62;6.10;5.07;;;28.30;38.70;;;;;;2275879;61;20359;-61
2023/09/18 00:54:02;0.00;0.00;0.62;0.00;0.00;0.62;7.03;4.87;;;28.30;38.70;;;;;;2275820;61;20437;-61
2023/09/18 00:56:52;0.00;0.00;0.62;0.00;0.00;0.62;5.03;4.53;;;28.30;38.70;;;;;;2275844;61;20371;-59
2023/09/18 00:59:39;0.00;0.00;0.62;0.00;0.00;0.62;4.93;4.40;;;28.30;38.80;;;;;;2276348;61;21022;-60
2023/09/18 01:02:23;0.00;0.00;0.62;0.00;0.00;0.62;4.80;4.40;;;28.30;38.80;;;;;;2276229;61;20363;-60
2023/09/18 01:05:08;0.00;0.00;0.62;0.00;0.00;0.62;5.77;4.50;;;28.20;38.90;;;;;;2276118;61;20359;-61
2023/09/18 01:07:53;0.00;0.00;0.62;0.00;0.00;0.62;4.60;4.20;;;28.20;38.90;;;;;;2275535;61;20402;-61
2023/09/18 01:10:49;0.00;0.00;0.62;0.00;0.00;0.62;5.43;4.47;;;28.20;38.90;;;;;;2275536;61;20401;-60
2023/09/18 01:13:43;0.00;0.00;0.62;0.00;0.00;0.62;5.10;4.60;;;28.20;38.90;;;;;;2275468;61;20375;-60
2023/09/18 01:16:37;0.00;0.00;0.62;0.00;0.00;0.62;5.00;4.10;;;28.20;38.90;;;;;;2273170;61;20371;-58
2023/09/18 01:19:39;0.00;0.00;0.62;0.00;0.00;0.62;5.47;4.83;;;28.20;38.90;;;;;;2275177;61;20418;-62
2023/09/18 01:22:24;0.00;0.00;0.62;0.00;0.00;0.62;5.60;4.40;;;28.10;38.90;;;;;;2276325;61;20440;-62
2023/09/18 01:25:10;0.00;0.00;0.62;0.00;0.00;0.62;5.37;4.87;;;28.20;38.90;;;;;;2276361;61;20393;-61
2023/09/18 01:27:55;0.00;0.00;0.62;0.00;0.00;0.62;4.70;4.17;;;28.10;38.80;;;;;;2272511;61;20358;-61
2023/09/18 01:30:40;0.00;0.00;0.62;0.00;0.00;0.62;5.37;4.87;;;28.10;38.80;;;;;;2275584;61;20398;-60
2023/09/18 01:33:26;0.00;0.00;0.62;0.00;0.00;0.62;5.40;4.90;;;28.10;38.80;;;;;;2275556;61;20354;-60
2023/09/18 01:36:12;0.00;0.00;0.62;0.00;0.00;0.62;4.77;4.33;;;28.10;38.80;;;;;;2275543;61;20442;-60
2023/09/18 01:38:58;0.00;0.00;0.62;0.00;0.00;0.62;5.30;4.80;;;28.10;38.80;;;;;;2275589;61;20449;-60
2023/09/18 01:41:43;0.00;0.00;0.62;0.00;0.00;0.62;5.80;4.87;;;28.10;38.80;;;;;;2275970;61;20363;-60
2023/09/18 01:44:29;0.00;0.00;0.62;0.00;0.00;0.62;5.33;4.83;;;28.10;38.90;;;;;;2273175;61;20447;-59
2023/09/18 01:47:17;0.00;0.00;0.62;0.00;0.00;0.62;4.60;4.20;;;28.10;38.80;;;;;;2275978;61;20363;-59
2023/09/18 01:50:05;0.00;0.00;0.62;0.00;0.00;0.62;5.10;4.60;;;28.10;38.80;;;;;;2272159;61;20383;-61
2023/09/18 01:52:50;0.00;0.00;0.62;0.00;0.00;0.62;5.20;4.70;;;28.10;38.80;;;;;;2276528;61;20366;-60
2023/09/18 01:55:34;0.00;0.00;0.62;0.00;0.00;0.62;4.80;4.37;;;28.10;38.80;;;;;;2268588;61;20368;-61
2023/09/18 01:58:20;0.00;0.00;0.62;0.00;0.00;0.62;5.70;4.60;;;28.10;38.90;;;;;;2271287;61;20379;-61
2023/09/18 02:01:05;0.00;0.00;0.62;0.00;0.00;0.62;5.97;4.60;;;28.10;38.90;;;;;;2272204;61;20764;-61
2023/09/18 02:03:49;0.00;0.00;0.62;0.00;0.00;0.62;4.63;4.23;;;28.10;38.90;;;;;;2268790;61;20379;-60
2023/09/18 02:06:34;0.00;0.00;0.62;0.00;0.00;0.62;8.30;4.80;;;28.10;38.80;;;;;;2272090;61;21008;-60
2023/09/18 02:09:19;0.00;0.00;0.62;0.00;0.00;0.62;5.47;4.97;;;28.10;39.50;;;;;;2271493;61;20379;-60
2023/09/18 02:12:05;0.00;0.00;0.62;0.00;0.00;0.62;6.23;4.23;;;28.10;38.80;;;;;;2271749;61;20360;-60
2023/09/18 02:14:51;0.00;0.00;0.62;0.00;0.00;0.62;4.67;4.27;;;28.10;38.70;;;;;;2271688;61;20368;-60
2023/09/18 02:17:36;0.00;0.00;0.62;0.00;0.00;0.62;5.03;4.00;;;28.10;38.80;;;;;;2272227;61;20403;-60
2023/09/18 02:20:21;0.00;0.00;0.62;0.00;0.00;0.62;5.60;5.00;;;28.00;38.70;;;;;;2272259;61;20837;-60
2023/09/18 02:23:05;0.00;0.00;0.62;0.00;0.00;0.62;4.40;4.00;;;28.00;38.70;;;;;;2271952;61;20402;-60
2023/09/18 02:25:56;0.00;0.00;0.62;0.00;0.00;0.62;6.80;4.90;;;28.00;38.60;;;;;;2271743;61;20359;-59
2023/09/18 02:28:41;0.00;0.00;0.62;0.00;0.00;0.62;5.00;4.50;;;28.00;38.60;;;;;;2271342;61;20420;-61
2023/09/18 02:31:27;0.00;0.00;0.62;0.00;0.00;0.62;7.00;4.90;;;28.00;39.30;;;;;;2271373;61;20448;-61
2023/09/18 02:34:13;0.00;0.00;0.62;0.00;0.00;0.62;5.33;4.57;;;28.00;38.60;;;;;;2272114;61;20410;-61
2023/09/18 02:36:57;0.00;0.00;0.62;0.00;0.00;0.62;4.50;4.10;;;28.00;38.70;;;;;;2271527;61;20379;-60
2023/09/18 02:39:42;0.00;0.00;0.62;0.00;0.00;0.62;4.43;4.03;;;28.00;38.60;;;;;;2271867;61;20448;-60
2023/09/18 02:42:27;0.00;0.00;0.62;0.00;0.00;0.62;5.17;4.33;;;28.00;38.60;;;;;;2269136;61;20418;-60
2023/09/18 02:45:12;0.00;0.00;0.62;0.00;0.00;0.62;4.40;4.00;;;27.90;38.50;;;;;;2272157;61;20463;-58
2023/09/18 02:47:58;0.00;0.00;0.62;0.00;0.00;0.62;5.10;4.57;;;27.90;38.50;;;;;;2271932;61;20387;-60
2023/09/18 02:50:43;0.00;0.00;0.62;0.00;0.00;0.62;5.00;4.60;;;27.90;38.50;;;;;;2272135;61;20383;-60
2023/09/18 02:53:28;0.00;0.00;0.62;0.00;0.00;0.62;5.97;4.70;;;27.90;38.50;;;;;;2271723;61;20827;-61
2023/09/18 02:56:14;0.00;0.00;0.62;0.00;0.00;0.62;4.37;3.97;;;27.80;38.50;;;;;;2271231;61;20391;-60
2023/09/18 02:58:59;0.00;0.00;0.62;0.00;0.00;0.62;8.07;5.17;;;27.90;38.60;;;;;;2271204;61;20395;-60
2023/09/18 03:01:44;0.00;0.00;0.62;0.00;0.00;0.62;6.23;4.30;;;27.80;38.60;;;;;;2268171;61;20893;-61
2023/09/18 03:04:31;0.00;0.00;0.62;0.00;0.00;0.62;7.47;4.83;;;27.70;38.60;;;;;;2268551;61;20359;-60
2023/09/18 03:07:17;0.00;0.00;0.62;0.00;0.00;0.62;5.37;4.87;;;27.70;39.30;;;;;;2268654;61;20678;-61
2023/09/18 03:10:02;0.00;0.00;0.62;0.00;0.00;0.62;5.40;4.90;;;27.70;38.70;;;;;;2270422;61;20402;-61
2023/09/18 03:12:48;0.00;0.00;0.62;0.00;0.00;0.62;5.43;4.93;;;27.70;38.70;;;;;;2270840;61;20364;-62
2023/09/18 03:15:33;0.00;0.00;0.62;0.00;0.00;0.62;4.90;4.50;;;27.70;38.80;;;;;;2271298;61;20429;-61
2023/09/18 03:18:18;0.00;0.00;0.62;0.00;0.00;0.62;6.83;4.47;;;27.60;38.80;;;;;;2270603;61;20396;-62
2023/09/18 03:21:04;0.00;0.00;0.62;0.00;0.00;0.62;5.40;4.70;;;27.60;38.90;;;;;;2268371;61;20367;-62
2023/09/18 03:23:49;0.00;0.00;0.62;0.00;0.00;0.62;4.43;4.03;;;27.50;38.90;;;;;;2268189;61;20371;-62
2023/09/18 03:26:35;0.00;0.00;0.62;0.00;0.00;0.62;5.50;5.00;;;27.60;39.00;;;;;;2270882;61;20386;-62
2023/09/18 03:29:21;0.00;0.00;0.62;0.00;0.00;0.62;5.77;5.10;;;27.50;39.00;;;;;;2267485;61;20380;-60
2023/09/18 03:32:06;0.00;0.00;0.62;0.00;0.00;0.62;5.60;5.10;;;27.50;39.10;;;;;;2267730;61;20758;-61
2023/09/18 03:34:52;0.00;0.00;0.62;0.00;0.00;0.62;6.27;4.97;;;27.40;39.10;;;;;;2268143;61;20418;-61
2023/09/18 03:37:38;0.00;0.00;0.62;0.00;0.00;0.62;5.80;5.03;;;27.40;39.10;;;;;;2271228;61;20375;-62
2023/09/18 03:40:23;0.00;0.00;0.62;0.00;0.00;0.62;5.07;4.63;;;27.40;39.20;;;;;;2270609;61;20391;-60
2023/09/18 03:43:09;0.00;0.00;0.62;0.00;0.00;0.62;5.30;4.80;;;27.40;39.20;;;;;;2270583;61;20402;-61
2023/09/18 03:45:54;0.00;0.00;0.62;0.00;0.00;0.62;10.00;5.63;;;27.40;39.30;;;;;;2268267;61;20355;-61
2023/09/18 03:48:40;0.00;0.00;0.62;0.00;0.00;0.62;5.50;4.80;;;27.40;39.40;;;;;;2270406;61;20450;-61
2023/09/18 03:51:24;0.00;0.00;0.62;0.00;0.00;0.62;5.57;4.97;;;27.30;39.40;;;;;;2267846;61;20418;-61
2023/09/18 03:54:11;0.00;0.00;0.62;0.00;0.00;0.62;5.60;5.10;;;27.30;39.40;;;;;;2271091;61;20406;-61
2023/09/18 03:56:55;0.00;0.00;0.62;0.00;0.00;0.62;5.07;4.60;;;27.30;39.40;;;;;;2270632;61;20451;-61
2023/09/18 03:59:40;0.00;0.00;0.62;0.00;0.00;0.62;6.40;4.60;;;27.30;39.50;;;;;;2270316;61;20403;-61
2023/09/18 04:02:26;0.00;0.00;0.62;0.00;0.00;0.62;5.90;4.77;;;27.20;39.50;;;;;;2267485;61;20403;-61
2023/09/18 04:05:11;0.00;0.00;0.62;0.00;0.00;0.62;5.10;4.50;;;27.20;39.50;;;;;;2270237;61;20378;-61
2023/09/18 04:07:55;0.00;0.00;0.62;0.00;0.00;0.62;5.00;4.60;;;27.20;39.50;;;;;;2272759;61;20433;-60
2023/09/18 04:10:41;0.00;0.00;0.62;0.00;0.00;0.62;5.80;5.20;;;27.10;39.50;;;;;;2270679;61;20399;-60
2023/09/18 04:13:27;0.00;0.00;0.62;0.00;0.00;0.62;5.43;4.90;;;27.20;39.70;;;;;;2268293;61;20394;-60
2023/09/18 04:16:16;0.00;0.00;0.62;0.00;0.00;0.62;4.60;4.10;;;27.10;39.70;;;;;;2271229;61;20383;-61
2023/09/18 04:19:02;0.00;0.00;0.62;0.00;0.00;0.62;5.60;4.67;;;27.10;39.70;;;;;;2271230;61;20454;-61
2023/09/18 04:21:46;0.00;0.00;0.62;0.00;0.00;0.62;6.53;5.70;;;27.00;39.70;;;;;;2272249;61;20368;-60
2023/09/18 04:24:31;0.00;0.00;0.62;0.00;0.00;0.62;6.00;4.90;;;27.10;39.80;;;;;;2271561;61;20375;-61
2023/09/18 04:27:16;0.00;0.00;0.62;0.00;0.00;0.62;5.37;4.87;;;27.10;39.80;;;;;;2271792;61;20444;-61
2023/09/18 04:30:01;0.00;0.00;0.62;0.00;0.00;0.62;6.07;5.13;;;27.00;39.70;;;;;;2271055;61;20388;-62
2023/09/18 04:32:46;0.00;0.00;0.62;0.00;0.00;0.62;16.90;5.90;;;27.00;39.70;;;;;;2273915;61;20379;-60
2023/09/18 04:35:31;0.00;0.00;0.62;0.00;0.00;0.62;5.03;4.23;;;27.00;39.70;;;;;;2272063;61;20379;-61
2023/09/18 04:38:19;0.00;0.00;0.62;0.00;0.00;0.62;6.80;5.33;;;27.00;40.40;;;;;;2273643;61;20410;-60
2023/09/18 04:41:04;0.00;0.00;0.62;0.00;0.00;0.62;4.90;4.47;;;27.00;39.70;;;;;;2268743;61;20400;-61
2023/09/18 04:43:50;0.00;0.00;0.62;0.00;0.00;0.62;7.37;5.60;;;27.00;40.10;;;;;;2271608;61;20770;-61
2023/09/18 04:46:35;0.00;0.00;0.62;0.00;0.00;0.62;4.80;4.40;;;27.00;39.70;;;;;;2271144;61;20368;-61
2023/09/18 04:49:21;0.00;0.00;0.62;0.00;0.00;0.62;6.80;4.80;;;27.00;39.70;;;;;;2271512;61;20380;-59
2023/09/18 04:52:06;0.00;0.00;0.62;0.00;0.00;0.62;5.43;4.40;;;27.00;39.70;;;;;;2271480;61;20532;-62
2023/09/18 04:54:51;0.00;0.00;0.62;0.00;0.00;0.62;5.20;4.80;;;27.10;39.70;;;;;;2271978;61;20407;-61
2023/09/18 04:57:36;0.00;0.00;0.62;0.00;0.00;0.62;5.60;5.10;;;27.10;39.70;;;;;;2271721;61;20415;-59
2023/09/18 05:00:24;0.00;0.00;0.62;0.00;0.00;0.62;5.40;4.90;;;27.00;39.60;;;;;;2272174;61;20380;-61
2023/09/18 05:03:10;0.00;0.00;0.62;0.00;0.00;0.62;9.27;5.20;;;27.10;39.60;;;;;;2271790;61;20781;-60
2023/09/18 05:05:55;0.00;0.00;0.62;0.00;0.00;0.62;5.30;4.50;;;27.10;39.50;;;;;;2271939;61;20379;-60
2023/09/18 05:08:39;0.00;0.00;0.62;0.00;0.00;0.62;5.67;4.63;;;27.10;39.50;;;;;;2271481;61;20376;-61
2023/09/18 05:11:24;0.00;0.00;0.62;0.00;0.00;0.62;6.63;5.00;;;27.10;39.50;;;;;;2272023;61;20363;-61
2023/09/18 05:14:08;0.00;0.00;0.62;0.00;0.00;0.62;5.03;4.53;;;27.10;39.50;;;;;;2271445;61;20376;-62
2023/09/18 05:16:54;0.00;0.00;0.62;0.00;0.00;0.62;7.17;5.30;;;27.10;39.50;;;;;;2268762;61;20364;-61
2023/09/18 05:19:39;0.00;0.00;0.62;0.00;0.00;0.62;5.47;4.97;;;27.10;39.50;;;;;;2271548;61;20395;-61
2023/09/18 05:22:24;0.00;0.00;0.62;0.00;0.00;0.62;5.43;4.93;;;27.10;39.50;;;;;;2272534;61;20374;-61
2023/09/18 05:25:10;0.00;0.00;0.62;0.00;0.00;0.62;5.57;4.90;;;27.10;40.10;;;;;;2271440;61;20414;-60
2023/09/18 05:27:58;0.00;0.00;0.62;0.00;0.00;0.62;6.00;5.10;;;27.20;39.60;;;;;;2271404;61;20407;-59
2023/09/18 05:30:43;0.00;0.00;0.62;0.00;0.00;0.62;6.30;5.63;;;27.10;39.50;;;;;;2271987;61;20514;-61
2023/09/18 05:33:29;0.00;0.00;0.62;0.00;0.00;0.62;5.70;5.20;;;27.20;39.50;;;;;;2268327;61;20364;-61
2023/09/18 05:36:14;0.00;0.00;0.62;0.00;0.00;0.62;6.00;5.40;;;27.10;39.50;;;;;;2271130;61;20364;-62
2023/09/18 05:38:59;0.00;0.00;0.62;0.00;0.00;0.62;5.43;4.93;;;27.10;39.50;;;;;;2270228;61;20863;-60
2023/09/18 05:41:44;0.00;0.00;0.62;0.00;0.00;0.62;5.23;4.30;;;27.10;39.60;;;;;;2270984;61;20360;-62
2023/09/18 05:44:28;0.00;0.00;0.62;0.00;0.00;0.62;6.73;5.17;;;27.10;39.60;;;;;;2271607;61;20407;-62
2023/09/18 05:47:13;0.00;0.00;0.62;0.00;0.00;0.62;8.70;5.50;;;27.10;40.30;;;;;;2270898;61;20363;-62
2023/09/18 05:49:59;0.00;0.00;0.62;0.00;0.00;0.62;6.13;5.53;;;27.10;39.70;;;;;;2271023;61;20399;-61
2023/09/18 05:52:46;0.00;0.00;0.62;0.00;0.00;0.62;7.13;5.83;;;27.00;39.70;;;;;;2271274;61;20426;-62
2023/09/18 05:55:31;0.00;0.00;0.62;0.00;0.00;0.62;8.37;5.50;;;27.00;39.70;;;;;;2271062;61;20356;-59
2023/09/18 05:58:17;0.00;0.00;0.62;0.00;0.00;0.62;6.80;5.27;;;27.00;39.80;;;;;;2270879;61;20834;-61
2023/09/18 06:01:02;0.00;0.00;0.62;0.00;0.00;0.62;6.40;5.80;;;27.00;39.80;;;;;;2270604;61;20423;-60
2023/09/18 06:03:47;0.00;0.00;0.62;0.00;0.00;0.62;7.23;4.80;;;27.00;39.80;;;;;;2268218;61;20801;-62
2023/09/18 06:06:33;0.00;0.00;0.62;0.00;0.00;0.62;5.90;5.40;;;27.00;39.90;;;;;;2270937;61;20368;-61
2023/09/18 06:09:18;0.00;0.00;0.62;0.00;0.00;0.62;5.33;4.83;;;27.00;39.90;;;;;;2270304;61;20395;-60
2023/09/18 06:12:04;0.00;0.00;0.62;0.00;0.00;0.62;6.20;5.60;;;27.00;39.90;;;;;;2271002;61;20405;-62
2023/09/18 06:14:49;0.00;0.00;0.62;0.00;0.00;0.62;5.60;5.00;;;27.00;39.90;;;;;;2271029;61;20379;-60
2023/09/18 06:17:34;0.00;0.00;0.62;0.00;0.00;0.62;5.70;5.20;;;27.00;40.00;;;;;;2270771;61;20372;-60
2023/09/18 06:20:19;0.00;0.00;0.62;0.00;0.00;0.62;5.70;5.20;;;27.00;40.00;;;;;;2271530;61;20379;-60
2023/09/18 06:23:05;0.00;0.00;0.62;0.00;0.00;0.62;5.57;4.97;;;26.90;40.00;;;;;;2271262;61;20363;-60
2023/09/18 06:25:56;0.00;0.00;0.62;0.00;0.00;0.62;5.43;4.93;;;27.00;40.10;;;;;;2271528;61;20674;-61
2023/09/18 06:28:40;0.00;0.00;0.62;0.00;0.00;0.62;5.40;4.90;;;26.90;40.10;;;;;;2270945;61;20479;-61
2023/09/18 06:31:26;0.00;0.00;0.62;0.00;0.00;0.62;5.30;4.67;;;26.90;40.00;;;;;;2270869;61;20387;-61
2023/09/18 06:34:10;0.00;0.00;0.62;0.00;0.00;0.62;6.23;5.30;;;27.00;40.10;;;;;;2271529;61;20965;-62
2023/09/18 06:36:55;0.00;0.00;0.62;0.00;0.00;0.62;6.20;5.60;;;26.90;40.10;;;;;;2271111;61;20383;-60
2023/09/18 06:39:41;0.00;0.00;0.62;0.00;0.00;0.62;5.53;5.03;;;26.90;40.10;;;;;;2271255;61;20403;-61
2023/09/18 06:42:26;0.00;0.00;0.62;0.00;0.00;0.62;5.47;4.97;;;27.00;40.20;;;;;;2271847;61;20413;-62
2023/09/18 06:45:17;0.00;0.00;0.62;0.00;0.00;0.62;5.20;4.70;;;27.00;40.20;;;;;;2268421;61;20948;-61
2023/09/18 06:48:03;0.00;0.00;0.62;0.00;0.00;0.62;5.47;4.70;;;27.00;40.30;;;;;;2270629;61;20475;-62
2023/09/18 06:50:47;0.00;0.00;0.62;0.00;0.00;0.62;6.53;5.70;;;27.00;40.30;;;;;;2271380;61;20796;-60
2023/09/18 06:53:32;0.00;0.00;0.62;0.00;0.00;0.62;5.30;4.80;;;27.00;40.30;;;;;;2270845;61;20356;-60
2023/09/18 06:56:18;0.00;0.00;0.62;0.00;0.00;0.62;5.67;4.87;;;27.00;40.30;;;;;;2270914;61;20384;-61
2023/09/18 06:59:02;0.00;0.00;0.62;0.00;0.00;0.62;5.50;4.90;;;27.00;40.30;;;;;;2275920;61;20399;-59
2023/09/18 07:01:47;0.00;0.00;0.62;0.00;0.00;0.62;6.07;5.47;;;27.00;40.30;;;;;;2271981;61;20383;-59
2023/09/18 07:04:32;0.00;0.00;0.62;0.00;0.00;0.62;10.40;5.07;;;27.00;40.40;;;;;;2268689;61;20383;-60
2023/09/18 07:07:17;0.00;0.00;0.62;0.00;0.00;0.62;7.03;5.37;;;27.00;40.40;;;;;;2271651;61;20776;-61
2023/09/18 07:10:02;0.00;0.00;0.62;0.00;0.00;0.62;6.10;5.33;;;27.00;40.40;;;;;;2270850;61;20383;-61
2023/09/18 07:12:48;0.00;0.00;0.62;0.00;0.00;0.62;6.17;5.37;;;27.00;40.50;;;;;;2271622;61;20452;-61
2023/09/18 07:15:33;0.00;0.00;0.62;0.00;0.00;0.62;5.20;4.70;;;27.00;40.50;;;;;;2271280;61;20364;-61
2023/09/18 07:18:17;0.00;0.00;0.62;0.00;0.00;0.62;5.90;5.20;;;27.00;40.50;;;;;;2268209;61;20399;-59
2023/09/18 07:21:02;0.00;0.00;0.62;0.00;0.00;0.62;7.00;5.40;;;27.00;40.60;;;;;;2271622;61;20347;-60
2023/09/18 07:23:47;0.00;0.00;0.62;0.00;0.00;0.62;5.57;5.07;;;27.00;40.60;;;;;;2270936;61;20470;-61
2023/09/18 07:26:32;0.00;0.00;0.62;0.00;0.00;0.62;5.33;4.93;;;27.10;40.70;;;;;;2270207;61;20364;-59
2023/09/18 07:29:18;0.00;0.00;0.62;0.00;0.00;0.62;6.20;5.60;;;27.00;40.60;;;;;;2266730;61;20430;-62
2023/09/18 07:32:03;0.00;0.00;0.62;0.00;0.00;0.62;5.57;4.97;;;27.10;41.30;;;;;;2269610;61;20447;-62
2023/09/18 07:34:49;0.00;0.00;0.62;0.00;0.00;0.62;6.73;6.03;;;27.10;40.50;;;;;;2269699;61;20399;-61
2023/09/18 07:37:35;0.00;0.00;0.62;0.00;0.00;0.62;6.97;5.40;;;27.20;40.60;;;;;;2274448;61;20367;-62
2023/09/18 07:40:21;0.00;0.00;0.62;0.00;0.00;0.62;5.67;4.40;;;27.10;40.40;;;;;;2274701;61;20378;-60
2023/09/18 07:43:06;0.00;0.00;0.62;0.00;0.00;0.62;5.17;4.60;;;27.20;40.50;;;;;;2274770;61;20680;-61
2023/09/18 07:45:54;0.00;0.00;0.62;0.00;0.00;0.62;5.30;4.80;;;27.20;40.50;;;;;;2275039;61;20884;-60
2023/09/18 07:48:39;0.00;0.00;0.62;0.00;0.00;0.62;5.20;4.63;;;27.20;40.50;;;;;;2274748;61;20378;-61
2023/09/18 07:51:24;0.00;0.00;0.62;0.00;0.00;0.62;5.37;4.87;;;27.20;40.50;;;;;;2275464;61;20359;-58
2023/09/18 07:54:09;0.00;0.00;0.62;0.00;0.00;0.62;6.93;5.57;;;27.20;40.50;;;;;;2275454;61;20678;-62
2023/09/18 07:56:53;0.00;0.00;0.62;0.00;0.00;0.62;6.33;5.80;;;27.20;40.50;;;;;;2275256;61;20435;-62
2023/09/18 07:59:42;0.00;0.00;0.62;0.00;0.00;0.62;6.43;5.40;;;27.20;40.50;;;;;;2274677;61;20390;-61
2023/09/18 08:02:31;0.00;0.00;0.62;0.00;0.00;0.62;7.90;5.63;;;27.20;40.50;;;;;;2275768;61;20358;-61
2023/09/18 08:05:16;0.00;0.00;0.62;0.00;0.00;0.62;6.87;4.60;;;27.20;40.50;;;;;;2275741;61;20375;-61
2023/09/18 08:08:05;0.00;0.00;0.62;0.00;0.00;0.62;7.03;5.07;;;27.20;40.50;;;;;;2274907;61;20374;-61
2023/09/18 08:10:50;0.00;0.00;0.62;0.00;0.00;0.62;5.70;4.43;;;27.20;40.60;;;;;;2275666;61;20374;-61
2023/09/18 08:13:36;0.00;0.00;0.62;0.00;0.00;0.62;5.83;5.33;;;27.20;40.60;;;;;;2275733;61;20351;-61
2023/09/18 08:16:20;0.00;0.00;0.62;0.00;0.00;0.62;6.30;4.80;;;27.20;40.80;;;;;;2275781;61;20395;-61
2023/09/18 08:19:06;0.00;0.00;0.62;0.00;0.00;0.62;5.30;4.80;;;27.20;40.70;;;;;;2275326;61;20390;-61
2023/09/18 08:21:52;0.00;0.00;0.62;0.00;0.00;0.62;5.27;4.77;;;27.20;40.80;;;;;;2275507;61;20497;-60
2023/09/18 08:24:37;0.00;0.00;0.62;0.00;0.00;0.62;10.47;4.70;;;27.20;40.80;;;;;;2275960;61;20367;-62
2023/09/18 08:27:24;0.00;0.00;0.62;0.00;0.00;0.62;7.00;5.20;;;27.30;40.90;;;;;;2275924;61;20836;-58
2023/09/18 08:30:11;0.00;0.00;0.62;0.00;0.00;0.62;5.47;4.60;;;27.30;41.00;;;;;;2275613;61;20386;-60
2023/09/18 08:32:55;0.00;0.00;0.62;0.00;0.00;0.62;10.00;4.90;;;27.30;41.00;;;;;;2275690;61;20463;-60
2023/09/18 08:35:42;0.00;0.00;0.62;0.00;0.00;0.62;8.37;4.37;;;27.30;41.00;;;;;;2275194;61;20359;-61
2023/09/18 08:38:27;0.00;0.00;0.62;0.00;0.00;0.62;6.67;5.13;;;27.30;41.00;;;;;;2275300;61;20390;-62
2023/09/18 08:41:13;0.00;0.00;0.62;0.00;0.00;0.62;9.60;4.43;;;27.30;40.90;;;;;;2275600;61;20371;-61
2023/09/18 08:44:03;0.00;0.00;0.62;0.00;0.00;0.62;8.37;4.33;;;27.30;40.90;;;;;;2275217;61;20391;-60
2023/09/18 08:46:48;0.00;0.00;0.62;0.00;0.00;0.62;9.23;4.93;;;27.30;40.90;;;;;;2275958;61;20359;-62
2023/09/18 08:49:34;0.00;0.00;0.62;0.00;0.00;0.62;7.70;4.23;;;27.30;40.90;;;;;;2275423;61;20383;-61
2023/09/18 08:52:21;0.00;0.00;0.62;0.00;0.00;0.62;9.70;4.90;;;27.30;40.90;;;;;;2276172;61;20390;-60
2023/09/18 08:55:07;0.00;0.00;0.62;0.00;0.00;0.62;6.00;4.47;;;27.30;40.90;;;;;;2276261;61;20410;-62
2023/09/18 08:57:53;0.00;0.00;0.62;0.00;0.00;0.62;7.97;4.53;;;27.30;40.90;;;;;;2275301;61;20409;-59
2023/09/18 09:00:38;0.00;0.00;0.62;0.00;0.00;0.62;6.50;4.30;;;27.30;41.00;;;;;;2275671;61;20398;-60
2023/09/18 09:03:23;0.00;0.00;0.62;0.00;0.00;0.62;10.07;4.70;;;27.40;41.00;;;;;;2275643;61;20363;-60
2023/09/18 09:06:09;0.00;0.00;0.62;0.00;0.00;0.62;5.60;3.70;;;27.40;41.00;;;;;;2452900;53;20391;-61
2023/09/18 09:08:55;0.00;0.00;0.62;0.00;0.00;0.62;9.53;3.80;;;27.40;41.00;;;;;;2271377;61;20380;-60
2023/09/18 09:11:49;0.00;0.00;0.62;0.00;0.00;0.62;6.60;4.07;;;27.40;41.00;;;;;;2271643;61;20612;-61
2023/09/18 09:14:33;0.00;0.00;0.62;0.00;0.00;0.62;4.50;3.47;;;27.40;41.00;;;;;;2274821;61;20336;-60
2023/09/18 09:17:19;0.00;0.00;0.62;0.00;0.00;0.62;5.67;3.70;;;27.40;40.90;;;;;;2272141;61;20429;-61
2023/09/18 09:20:12;0.00;0.00;0.62;0.00;0.00;0.62;4.80;3.40;;;27.40;41.00;;;;;;2271552;61;20400;-60
2023/09/18 09:23:01;0.00;0.00;0.62;0.00;0.00;0.62;5.30;3.70;;;27.40;41.00;;;;;;2271689;61;20758;-61
2023/09/18 09:25:47;0.00;0.00;0.62;0.00;0.00;0.62;5.30;3.93;;;27.50;41.00;;;;;;2271619;61;20383;-61
2023/09/18 09:28:33;0.00;0.00;0.62;0.00;0.00;0.62;5.97;3.80;;;27.50;41.00;;;;;;2271168;61;20359;-61
2023/09/18 09:31:27;0.00;0.00;0.62;0.00;0.00;0.62;7.33;4.47;;;27.50;41.00;;;;;;2272119;61;20421;-61
2023/09/18 09:34:12;0.00;0.00;0.62;0.00;0.00;0.62;4.60;3.30;;;27.50;40.90;;;;;;2269370;61;20423;-59
2023/09/18 09:36:57;0.00;0.00;0.62;0.00;0.00;0.62;3.90;3.50;;;27.50;40.90;;;;;;2271915;61;20878;-60
2023/09/18 09:39:50;0.00;0.00;0.62;0.00;0.00;0.62;7.80;4.20;;;27.50;40.90;;;;;;2271204;61;21075;-59
2023/09/18 09:42:40;0.00;0.00;0.62;0.00;0.00;0.62;5.60;3.93;;;27.50;40.80;;;;;;2272167;61;20364;-59
2023/09/18 09:45:27;0.00;0.00;0.62;0.00;0.00;0.62;8.97;4.30;;;27.50;40.70;;;;;;2272312;61;20368;-60
2023/09/18 09:48:12;0.00;0.00;0.62;0.00;0.00;0.62;7.90;3.90;;;27.50;40.70;;;;;;2271481;61;20794;-61
2023/09/18 09:50:59;0.00;0.00;0.62;0.00;0.00;0.62;8.03;4.07;;;27.50;40.60;;;;;;2268585;61;20383;-61
2023/09/18 09:53:50;0.00;0.00;0.62;0.00;0.00;0.62;5.37;3.83;;;27.60;40.70;;;;;;2272284;61;20898;-61
2023/09/18 09:56:44;0.00;0.00;0.62;0.00;0.00;0.62;5.30;3.67;;;27.60;40.60;;;;;;2271840;61;20361;-55
2023/09/18 09:59:33;0.00;0.00;0.62;0.00;0.00;0.62;6.07;3.87;;;27.60;40.60;;;;;;2271721;61;20433;-59
2023/09/18 10:02:22;0.00;0.00;0.62;0.00;0.00;0.62;6.40;3.77;;;27.60;40.50;;;;;;2271401;61;20440;-62
2023/09/18 10:05:08;0.00;0.00;0.62;0.00;0.00;0.62;6.00;3.33;;;27.60;40.50;;;;;;2272098;61;20391;-57
2023/09/18 10:07:54;0.00;0.00;0.62;0.00;0.00;0.62;5.60;3.83;;;27.60;40.40;;;;;;2271489;61;20392;-58
2023/09/18 10:10:45;0.00;0.00;0.62;0.00;0.00;0.62;4.13;3.03;;;27.60;40.40;;;;;;2268752;61;20956;-61
2023/09/18 10:13:39;0.00;0.00;0.62;0.00;0.00;0.62;9.00;3.57;;;27.70;40.50;;;;;;2274034;61;20356;-61
2023/09/18 10:16:27;0.00;0.00;0.62;0.00;0.00;0.62;6.33;3.03;;;27.60;40.40;;;;;;2271264;61;20380;-58
2023/09/18 10:19:28;0.00;0.00;0.62;0.00;0.00;0.62;4.30;3.07;;;27.70;40.40;;;;;;2268031;61;20445;-61
2023/09/18 10:22:22;0.00;0.00;0.62;0.00;0.00;0.62;5.50;3.50;;;27.70;40.40;;;;;;2272086;61;20356;-60
2023/09/18 10:25:12;0.00;0.00;0.62;0.00;0.00;0.62;7.13;3.80;;;27.70;40.40;;;;;;2271323;61;20403;-59
2023/09/18 10:28:01;0.00;0.00;0.62;0.00;0.00;0.62;6.23;3.60;;;27.70;40.40;;;;;;2271696;61;20379;-60
2023/09/18 10:30:46;0.00;0.00;0.62;0.00;0.00;0.62;5.30;3.30;;;27.70;40.40;;;;;;2271633;61;20448;-60
2023/09/18 10:33:33;0.00;0.00;0.62;0.00;0.00;0.62;8.23;3.60;;;27.70;40.40;;;;;;2271296;61;20356;-60
2023/09/18 10:36:20;0.00;0.00;0.62;0.00;0.00;0.62;9.27;3.27;;;27.70;40.40;;;;;;2509831;53;20368;-60
2023/09/18 10:39:10;0.00;0.00;0.62;0.00;0.00;0.62;5.33;3.57;;;27.70;40.40;;;;;;2270644;61;20438;-61
2023/09/18 10:41:57;0.00;0.00;0.62;0.00;0.00;0.62;7.63;4.30;;;27.70;40.50;;;;;;2271192;61;20364;-60
2023/09/18 10:44:42;0.00;0.00;0.62;0.00;0.00;0.62;5.87;3.73;;;27.70;40.40;;;;;;2271516;61;20368;-61
2023/09/18 10:47:27;0.00;0.00;0.62;0.00;0.00;0.62;10.47;3.47;;;27.70;40.50;;;;;;2271168;61;20359;-60
2023/09/18 10:50:23;0.00;0.00;0.62;0.00;0.00;0.62;7.10;3.70;;;27.80;40.60;;;;;;2269987;61;20383;-60
2023/09/18 10:53:08;0.00;0.00;0.62;0.00;0.00;0.62;4.17;3.17;;;27.70;40.40;;;;;;2271180;61;20387;-61
2023/09/18 10:55:54;0.00;0.00;0.62;0.00;0.00;0.62;7.90;3.23;;;27.80;40.40;;;;;;2271077;61;20379;-61